Bookmark and Share
Track history (hours):
 

Lake Dynasty

Last reported at 2014-Apr-16 00:33 UTC. Time now 2014-Apr-20 05:57 UTC.
Position N 39°59' E 119°50'.

Length 182 m; draft 6.7 m.

Type: Cargo ship. MMSI: 370957000.

NotesDate/timePositionNaut miles runAvg speedWind from/ knotsBaromVisibWave heightAir tempDewpointWater temp
2014-Apr-16 00:33N 39°59' E 119°50'0 0.0
2014-Apr-14 06:33N 39°59' E 119°50'0 0.0
2014-Apr-14 05:33N 39°59' E 119°50'0 0.0
2014-Apr-13 22:33N 39°59' E 119°50'0 0.0
2014-Apr-13 21:33N 39°59' E 119°50'0 0.0
2014-Apr-13 20:33N 39°59' E 119°50'0 0.0
2014-Apr-13 19:31N 39°59' E 119°50'0 0.0
2014-Apr-13 18:33N 39°59' E 119°50'0 0.0
2014-Apr-13 17:33N 39°59' E 119°50'0 0.0
2014-Apr-13 16:33N 39°59' E 119°50'0 0.0
2014-Apr-13 15:33N 39°59' E 119°50'0 0.0
2014-Apr-13 14:33N 39°59' E 119°50'0 0.0
2014-Apr-13 13:33N 39°59' E 119°50'0 0.0
2014-Apr-13 12:33N 39°59' E 119°50'0 0.0
2014-Apr-13 11:33N 39°59' E 119°50'0 0.0
2014-Apr-13 10:33N 39°59' E 119°50'0 0.0
2014-Apr-13 09:32N 39°59' E 119°50'0 0.0
2014-Apr-13 08:33N 39°59' E 119°50'0 0.0
2014-Apr-13 07:33N 39°59' E 119°50'0 0.0
2014-Apr-13 06:33N 39°59' E 119°50'0 0.0
2014-Apr-13 05:33N 39°59' E 119°50'2 0.0
2014-Apr-11 02:33N 39°57' E 119°49'4 4.1
2014-Apr-11 01:33N 39°54' E 119°52'5 5.1
2014-Apr-11 00:33N 39°49' E 119°55'6 6.3
2014-Apr-10 23:33N 39°43' E 119°56'9510.5
2014-Apr-10 14:32N 38°31' E 121°15'1313.0
2014-Apr-10 13:33N 38°28' E 121°31'1514.5
2014-Apr-10 12:33N 38°22' E 121°48'1514.3
2014-Apr-10 11:30N 38°18' E 122°06'1414.2
2014-Apr-10 10:33N 38°14' E 122°22'213 9.7
2014-Apr-09 12:33N 35°14' E 120°01'1211.9
2014-Apr-09 11:33N 35°15' E 119°46'1110.9
2014-Apr-09 10:33N 35°20' E 119°34'2 2.2
2014-Apr-09 09:25N 35°22' E 119°32'0 0.0
2014-Apr-09 08:31N 35°22' E 119°32'0 0.0
2014-Apr-09 07:25N 35°22' E 119°32'0 0.0
2014-Apr-09 06:31N 35°22' E 119°32'0 0.0
2014-Apr-09 05:25N 35°22' E 119°32'0 0.0
2014-Apr-09 04:31N 35°22' E 119°32'0 0.0
2014-Apr-09 03:31N 35°22' E 119°32'0 0.0
2014-Apr-09 02:31N 35°22' E 119°32'0 0.0
2014-Apr-09 01:31N 35°22' E 119°32'0 0.0
2014-Apr-09 00:31N 35°22' E 119°32'0 0.0
2014-Apr-08 23:25N 35°22' E 119°32'0 0.0
2014-Apr-08 22:31N 35°22' E 119°32'0 0.0
2014-Apr-08 21:25N 35°22' E 119°32'0 0.0
2014-Apr-08 20:31N 35°22' E 119°32'0 0.0
2014-Apr-08 19:31N 35°22' E 119°32'0 0.0
2014-Apr-08 18:31N 35°22' E 119°32'0 0.0
2014-Apr-08 17:31N 35°22' E 119°32'0 0.0
2014-Apr-08 16:31N 35°22' E 119°32'0 0.0
2014-Apr-08 15:31N 35°22' E 119°32'0 0.0
2014-Apr-08 14:19N 35°22' E 119°32'0 0.0
2014-Apr-08 12:25N 35°22' E 119°32'0 0.0
2014-Apr-08 11:31N 35°22' E 119°32'0 0.0
2014-Apr-08 10:31N 35°22' E 119°32'0 0.0
2014-Apr-08 09:31N 35°22' E 119°32'0 0.0
2014-Apr-08 08:25N 35°22' E 119°32'0 0.0
2014-Apr-08 07:31N 35°22' E 119°32'0 0.0
2014-Apr-08 06:25N 35°22' E 119°32'0 0.0
2014-Apr-08 05:25N 35°22' E 119°32'0 0.0
2014-Apr-08 04:31N 35°22' E 119°32'0 0.0
2014-Apr-08 03:31N 35°22' E 119°32'0 0.0
2014-Apr-08 02:31N 35°22' E 119°32'0 0.0
2014-Apr-08 01:31N 35°22' E 119°32'0 0.0
2014-Apr-08 00:31N 35°22' E 119°32'0 0.0
2014-Apr-07 23:31N 35°22' E 119°32'0 0.0
2014-Apr-07 22:31N 35°22' E 119°32'0 0.0
2014-Apr-07 21:31N 35°22' E 119°32'0 0.0
2014-Apr-07 20:31N 35°22' E 119°32'0 0.0
2014-Apr-07 19:19N 35°22' E 119°32'0 0.0
2014-Apr-07 17:31N 35°22' E 119°32'0 0.0
2014-Apr-07 16:31N 35°22' E 119°32'0 0.0
2014-Apr-07 15:31N 35°22' E 119°32'0 0.0
2014-Apr-07 14:31N 35°22' E 119°32'0 0.0
2014-Apr-07 13:31N 35°22' E 119°32'0 0.0
2014-Apr-07 12:31N 35°22' E 119°32'0 0.0
2014-Apr-07 11:25N 35°22' E 119°32'0 0.0
2014-Apr-07 10:31N 35°22' E 119°32'0 0.0
2014-Apr-07 09:31N 35°22' E 119°32'0 0.0
2014-Apr-07 08:25N 35°22' E 119°32'0 0.0
2014-Apr-07 07:31N 35°22' E 119°32'0 0.0
2014-Apr-07 06:31N 35°22' E 119°32'0 0.0
2014-Apr-07 05:31N 35°22' E 119°32'0 0.0
2014-Apr-07 04:25N 35°22' E 119°32'0 0.0
2014-Apr-07 03:31N 35°22' E 119°32'0 0.0
2014-Apr-07 02:25N 35°22' E 119°32'0 0.5
2014-Apr-07 01:34N 35°21' E 119°32'7 7.0
2014-Apr-07 00:34N 35°18' E 119°40'3 3.1
2014-Apr-06 23:28N 35°18' E 119°44'0 0.1
2014-Apr-06 22:28N 35°18' E 119°44'0 0.0
2014-Apr-06 21:28N 35°18' E 119°44'0 0.0
2014-Apr-06 20:22N 35°18' E 119°44'0 0.0
2014-Apr-06 19:28N 35°18' E 119°44'0 0.1
2014-Apr-06 18:28N 35°18' E 119°44'0 0.0
2014-Apr-06 17:28N 35°18' E 119°44'0 0.0
2014-Apr-06 16:28N 35°18' E 119°44'0 0.0
2014-Apr-06 15:28N 35°18' E 119°44'0 0.2
2014-Apr-06 14:28N 35°18' E 119°44'0 0.0
2014-Apr-06 13:16N 35°17' E 119°44'0 0.1
2014-Apr-06 12:22N 35°17' E 119°44'0 0.1
2014-Apr-06 11:28N 35°18' E 119°44'0 0.1
2014-Apr-06 10:28N 35°18' E 119°44'0 0.0
2014-Apr-06 09:28N 35°18' E 119°44'0 0.0
2014-Apr-06 08:28N 35°18' E 119°44'0 0.0
2014-Apr-06 07:28N 35°18' E 119°44'0 0.0
2014-Apr-06 06:22N 35°18' E 119°44'0 0.0
2014-Apr-06 05:28N 35°18' E 119°44'0 0.0
2014-Apr-06 04:28N 35°18' E 119°44'0 0.1
2014-Apr-06 03:28N 35°18' E 119°44'0 0.2
2014-Apr-06 02:28N 35°17' E 119°44'0 0.1
2014-Apr-06 01:28N 35°17' E 119°44'  

Dump ship's entire track history

sailing weather and tide predictions

Lake Dynasty — 3FZB2 — position and weather